sensor_id;sensor_type;location;lat;lon;timestamp;pressure;altitude;pressure_sealevel;temperature;humidity
56582;BME280;42463;52.214;21.238;2023-03-30T00:00:15;100328.31;;;6.38;38.76
56582;BME280;42463;52.214;21.238;2023-03-30T00:02:41;100317.23;;;6.33;38.85
56582;BME280;42463;52.214;21.238;2023-03-30T00:04:46;100330.30;;;6.38;38.88
56582;BME280;42463;52.214;21.238;2023-03-30T00:06:50;100331.85;;;6.35;38.88
56582;BME280;42463;52.214;21.238;2023-03-30T00:08:55;100320.61;;;6.26;39.13
56582;BME280;42463;52.214;21.238;2023-03-30T00:11:00;100321.69;;;6.32;39.31
56582;BME280;42463;52.214;21.238;2023-03-30T00:13:05;100317.64;;;6.32;39.30
56582;BME280;42463;52.214;21.238;2023-03-30T00:15:11;100316.14;;;6.34;39.40
56582;BME280;42463;52.214;21.238;2023-03-30T00:17:15;100310.85;;;6.34;39.50
56582;BME280;42463;52.214;21.238;2023-03-30T00:19:19;100315.84;;;6.33;39.61
56582;BME280;42463;52.214;21.238;2023-03-30T00:21:24;100318.56;;;6.33;39.55
56582;BME280;42463;52.214;21.238;2023-03-30T00:23:30;100317.98;;;6.33;39.85
56582;BME280;42463;52.214;21.238;2023-03-30T00:25:34;100308.89;;;6.32;40.05
56582;BME280;42463;52.214;21.238;2023-03-30T00:27:38;100318.78;;;6.38;40.10
56582;BME280;42463;52.214;21.238;2023-03-30T00:29:43;100317.92;;;6.41;39.98
56582;BME280;42463;52.214;21.238;2023-03-30T00:31:47;100315.84;;;6.39;40.08
56582;BME280;42463;52.214;21.238;2023-03-30T00:33:51;100311.67;;;6.37;40.23
56582;BME280;42463;52.214;21.238;2023-03-30T00:35:56;100309.23;;;6.34;40.26
56582;BME280;42463;52.214;21.238;2023-03-30T00:38:00;100307.67;;;6.32;40.39
56582;BME280;42463;52.214;21.238;2023-03-30T00:40:07;100307.80;;;6.29;40.47
56582;BME280;42463;52.214;21.238;2023-03-30T00:42:13;100305.59;;;6.29;40.71
56582;BME280;42463;52.214;21.238;2023-03-30T00:46:36;100296.63;;;6.34;40.88
56582;BME280;42463;52.214;21.238;2023-03-30T00:48:40;100293.56;;;6.36;40.81
56582;BME280;42463;52.214;21.238;2023-03-30T00:50:48;100292.71;;;6.39;40.81
56582;BME280;42463;52.214;21.238;2023-03-30T00:52:54;100287.46;;;6.40;41.03
56582;BME280;42463;52.214;21.238;2023-03-30T00:55:00;100286.31;;;6.42;40.98
56582;BME280;42463;52.214;21.238;2023-03-30T00:57:04;100286.67;;;6.43;41.25
56582;BME280;42463;52.214;21.238;2023-03-30T00:59:09;100285.23;;;6.46;41.14
56582;BME280;42463;52.214;21.238;2023-03-30T01:03:44;100281.32;;;6.49;41.13
56582;BME280;42463;52.214;21.238;2023-03-30T01:05:49;100274.55;;;6.50;41.24
56582;BME280;42463;52.214;21.238;2023-03-30T01:07:54;100271.13;;;6.51;41.31
56582;BME280;42463;52.214;21.238;2023-03-30T01:10:00;100271.70;;;6.52;41.43
56582;BME280;42463;52.214;21.238;2023-03-30T01:12:04;100264.81;;;6.52;41.51
56582;BME280;42463;52.214;21.238;2023-03-30T01:14:09;100269.49;;;6.52;41.50
56582;BME280;42463;52.214;21.238;2023-03-30T01:16:16;100263.38;;;6.51;41.63
56582;BME280;42463;52.214;21.238;2023-03-30T01:18:29;100263.20;;;6.50;41.62
56582;BME280;42463;52.214;21.238;2023-03-30T01:20:45;100260.91;;;6.47;41.61
56582;BME280;42463;52.214;21.238;2023-03-30T01:23:00;100259.23;;;6.43;41.75
56582;BME280;42463;52.214;21.238;2023-03-30T01:27:39;100254.03;;;6.42;41.97
56582;BME280;42463;52.214;21.238;2023-03-30T01:29:56;100257.07;;;6.40;42.26
56582;BME280;42463;52.214;21.238;2023-03-30T01:34:33;100254.70;;;6.41;42.16
56582;BME280;42463;52.214;21.238;2023-03-30T01:39:07;100255.92;;;6.45;42.41
56582;BME280;42463;52.214;21.238;2023-03-30T01:41:17;100258.94;;;6.44;42.43
56582;BME280;42463;52.214;21.238;2023-03-30T01:43:26;100263.40;;;6.44;42.62
56582;BME280;42463;52.214;21.238;2023-03-30T01:45:34;100265.73;;;6.44;42.54
56582;BME280;42463;52.214;21.238;2023-03-30T01:47:44;100267.55;;;6.41;42.63
56582;BME280;42463;52.214;21.238;2023-03-30T01:49:52;100265.45;;;6.37;42.85
56582;BME280;42463;52.214;21.238;2023-03-30T01:51:59;100266.48;;;6.37;42.99
56582;BME280;42463;52.214;21.238;2023-03-30T01:54:06;100263.19;;;6.39;42.82
56582;BME280;42463;52.214;21.238;2023-03-30T01:56:14;100257.96;;;6.39;43.03
56582;BME280;42463;52.214;21.238;2023-03-30T01:58:21;100256.02;;;6.41;43.17
56582;BME280;42463;52.214;21.238;2023-03-30T02:00:29;100235.34;;;6.34;43.21
56582;BME280;42463;52.214;21.238;2023-03-30T02:02:33;100249.98;;;6.41;43.23
56582;BME280;42463;52.214;21.238;2023-03-30T02:04:37;100245.59;;;6.40;43.38
56582;BME280;42463;52.214;21.238;2023-03-30T02:06:44;100244.73;;;6.40;43.61
56582;BME280;42463;52.214;21.238;2023-03-30T02:08:50;100242.21;;;6.39;43.49
56582;BME280;42463;52.214;21.238;2023-03-30T02:10:56;100244.41;;;6.36;43.42
56582;BME280;42463;52.214;21.238;2023-03-30T02:13:01;100242.11;;;6.32;43.67
56582;BME280;42463;52.214;21.238;2023-03-30T02:15:09;100236.11;;;6.32;43.86
56582;BME280;42463;52.214;21.238;2023-03-30T02:17:16;100236.02;;;6.32;43.75
56582;BME280;42463;52.214;21.238;2023-03-30T02:19:21;100242.20;;;6.34;43.95
56582;BME280;42463;52.214;21.238;2023-03-30T02:21:25;100237.61;;;6.34;44.09
56582;BME280;42463;52.214;21.238;2023-03-30T02:23:31;100233.54;;;6.32;44.16
56582;BME280;42463;52.214;21.238;2023-03-30T02:25:37;100233.89;;;6.33;44.19
56582;BME280;42463;52.214;21.238;2023-03-30T02:27:42;100232.23;;;6.34;44.22
56582;BME280;42463;52.214;21.238;2023-03-30T02:29:50;100226.79;;;6.34;44.18
56582;BME280;42463;52.214;21.238;2023-03-30T02:31:55;100227.70;;;6.34;44.42
56582;BME280;42463;52.214;21.238;2023-03-30T02:34:05;100227.22;;;6.36;44.19
56582;BME280;42463;52.214;21.238;2023-03-30T02:36:19;100227.85;;;6.35;44.43
56582;BME280;42463;52.214;21.238;2023-03-30T02:41:00;100228.34;;;6.33;44.37
56582;BME280;42463;52.214;21.238;2023-03-30T02:45:32;100222.74;;;6.38;44.60
56582;BME280;42463;52.214;21.238;2023-03-30T02:47:42;100220.64;;;6.40;44.63
56582;BME280;42463;52.214;21.238;2023-03-30T02:49:53;100220.59;;;6.43;44.81
56582;BME280;42463;52.214;21.238;2023-03-30T02:52:02;100214.98;;;6.42;44.68
56582;BME280;42463;52.214;21.238;2023-03-30T02:54:24;100211.84;;;6.46;44.60
56582;BME280;42463;52.214;21.238;2023-03-30T02:56:53;100210.14;;;6.46;44.75
56582;BME280;42463;52.214;21.238;2023-03-30T02:59:00;100210.86;;;6.46;44.77
56582;BME280;42463;52.214;21.238;2023-03-30T03:01:08;100209.85;;;6.44;44.75
56582;BME280;42463;52.214;21.238;2023-03-30T03:03:22;100205.96;;;6.44;44.88
56582;BME280;42463;52.214;21.238;2023-03-30T03:05:29;100206.98;;;6.42;44.93
56582;BME280;42463;52.214;21.238;2023-03-30T03:07:45;100204.88;;;6.41;44.92
56582;BME280;42463;52.214;21.238;2023-03-30T03:09:50;100201.85;;;6.43;45.05
56582;BME280;42463;52.214;21.238;2023-03-30T03:11:54;100199.16;;;6.44;45.03
56582;BME280;42463;52.214;21.238;2023-03-30T03:13:59;100196.86;;;6.40;45.04
56582;BME280;42463;52.214;21.238;2023-03-30T03:16:03;100194.48;;;6.37;45.39
56582;BME280;42463;52.214;21.238;2023-03-30T03:18:08;100196.41;;;6.36;45.30
56582;BME280;42463;52.214;21.238;2023-03-30T03:20:12;100194.94;;;6.36;45.48
56582;BME280;42463;52.214;21.238;2023-03-30T03:22:19;100197.58;;;6.36;45.43
56582;BME280;42463;52.214;21.238;2023-03-30T03:24:23;100191.95;;;6.35;45.58
56582;BME280;42463;52.214;21.238;2023-03-30T03:26:47;100189.38;;;6.38;45.72
56582;BME280;42463;52.214;21.238;2023-03-30T03:28:51;100187.25;;;6.39;45.69
56582;BME280;42463;52.214;21.238;2023-03-30T03:30:56;100181.11;;;6.39;45.76
56582;BME280;42463;52.214;21.238;2023-03-30T03:33:01;100180.65;;;6.40;45.76
56582;BME280;42463;52.214;21.238;2023-03-30T03:35:06;100181.00;;;6.41;45.87
56582;BME280;42463;52.214;21.238;2023-03-30T03:37:11;100177.39;;;6.41;45.84
56582;BME280;42463;52.214;21.238;2023-03-30T03:39:16;100175.83;;;6.41;45.86
56582;BME280;42463;52.214;21.238;2023-03-30T03:41:20;100178.63;;;6.42;46.05
56582;BME280;42463;52.214;21.238;2023-03-30T03:43:25;100175.49;;;6.40;46.00
56582;BME280;42463;52.214;21.238;2023-03-30T03:45:29;100173.36;;;6.42;46.18
56582;BME280;42463;52.214;21.238;2023-03-30T03:47:35;100169.94;;;6.43;46.23
56582;BME280;42463;52.214;21.238;2023-03-30T03:49:39;100169.42;;;6.42;46.20
56582;BME280;42463;52.214;21.238;2023-03-30T03:51:43;100167.71;;;6.40;46.22
56582;BME280;42463;52.214;21.238;2023-03-30T03:53:47;100162.35;;;6.38;46.27
56582;BME280;42463;52.214;21.238;2023-03-30T03:55:52;100160.13;;;6.38;46.52
56582;BME280;42463;52.214;21.238;2023-03-30T03:57:56;100159.19;;;6.37;46.51
56582;BME280;42463;52.214;21.238;2023-03-30T04:00:00;100159.05;;;6.38;46.53
56582;BME280;42463;52.214;21.238;2023-03-30T04:02:15;100158.85;;;6.37;46.68
56582;BME280;42463;52.214;21.238;2023-03-30T04:04:19;100157.60;;;6.38;46.76
56582;BME280;42463;52.214;21.238;2023-03-30T04:06:23;100154.71;;;6.39;46.79
56582;BME280;42463;52.214;21.238;2023-03-30T04:08:29;100151.59;;;6.35;46.81
56582;BME280;42463;52.214;21.238;2023-03-30T04:10:41;100152.48;;;6.31;46.85
56582;BME280;42463;52.214;21.238;2023-03-30T04:13:04;100150.77;;;6.26;47.05
56582;BME280;42463;52.214;21.238;2023-03-30T04:15:26;100147.11;;;6.24;47.21
56582;BME280;42463;52.214;21.238;2023-03-30T04:18:00;100145.48;;;6.20;47.31
56582;BME280;42463;52.214;21.238;2023-03-30T04:20:26;100139.34;;;6.20;47.41
56582;BME280;42463;52.214;21.238;2023-03-30T04:22:44;100135.48;;;6.23;47.60
56582;BME280;42463;52.214;21.238;2023-03-30T04:25:24;100134.48;;;6.27;47.62
56582;BME280;42463;52.214;21.238;2023-03-30T04:27:43;100134.92;;;6.30;47.60
56582;BME280;42463;52.214;21.238;2023-03-30T04:30:30;100136.83;;;6.30;47.56
56582;BME280;42463;52.214;21.238;2023-03-30T04:33:07;100136.08;;;6.33;47.70
56582;BME280;42463;52.214;21.238;2023-03-30T04:35:30;100132.59;;;6.36;47.65
56582;BME280;42463;52.214;21.238;2023-03-30T04:38:03;100132.41;;;6.39;47.60
56582;BME280;42463;52.214;21.238;2023-03-30T04:40:26;100136.91;;;6.40;47.62
56582;BME280;42463;52.214;21.238;2023-03-30T04:42:53;100139.20;;;6.42;47.60
56582;BME280;42463;52.214;21.238;2023-03-30T04:45:18;100136.88;;;6.44;47.63
56582;BME280;42463;52.214;21.238;2023-03-30T04:47:41;100134.33;;;6.48;47.61
56582;BME280;42463;52.214;21.238;2023-03-30T04:50:06;100133.52;;;6.52;47.61
56582;BME280;42463;52.214;21.238;2023-03-30T04:52:29;100130.27;;;6.52;47.67
56582;BME280;42463;52.214;21.238;2023-03-30T04:54:52;100130.44;;;6.55;47.64
56582;BME280;42463;52.214;21.238;2023-03-30T04:56:56;100128.91;;;6.56;47.73
56582;BME280;42463;52.214;21.238;2023-03-30T04:59:19;100130.41;;;6.58;47.77
56582;BME280;42463;52.214;21.238;2023-03-30T05:01:59;100125.75;;;6.57;47.73
56582;BME280;42463;52.214;21.238;2023-03-30T05:04:24;100125.61;;;6.58;47.90
56582;BME280;42463;52.214;21.238;2023-03-30T05:06:51;100127.73;;;6.59;47.94
56582;BME280;42463;52.214;21.238;2023-03-30T05:09:06;100122.81;;;6.59;47.97
56582;BME280;42463;52.214;21.238;2023-03-30T05:11:31;100127.04;;;6.61;47.92
56582;BME280;42463;52.214;21.238;2023-03-30T05:13:50;100118.63;;;6.61;48.09
56582;BME280;42463;52.214;21.238;2023-03-30T05:16:03;100127.66;;;6.68;48.03
56582;BME280;42463;52.214;21.238;2023-03-30T05:18:36;100121.77;;;6.72;47.98
56582;BME280;42463;52.214;21.238;2023-03-30T05:20:50;100118.17;;;6.75;47.94
56582;BME280;42463;52.214;21.238;2023-03-30T05:23:20;100120.62;;;6.76;47.89
56582;BME280;42463;52.214;21.238;2023-03-30T05:25:48;100113.47;;;6.75;48.00
56582;BME280;42463;52.214;21.238;2023-03-30T05:28:16;100116.13;;;6.80;47.99
56582;BME280;42463;52.214;21.238;2023-03-30T05:30:39;100112.70;;;6.79;48.09
56582;BME280;42463;52.214;21.238;2023-03-30T05:33:02;100111.36;;;6.79;48.11
56582;BME280;42463;52.214;21.238;2023-03-30T05:35:39;100108.05;;;6.83;48.15
56582;BME280;42463;52.214;21.238;2023-03-30T05:37:51;100110.44;;;6.86;48.20
56582;BME280;42463;52.214;21.238;2023-03-30T05:40:07;100107.23;;;6.88;48.01
56582;BME280;42463;52.214;21.238;2023-03-30T05:42:30;100106.70;;;6.91;47.99
56582;BME280;42463;52.214;21.238;2023-03-30T05:44:48;100107.92;;;6.95;48.35
56582;BME280;42463;52.214;21.238;2023-03-30T05:47:10;100107.61;;;7.01;48.23
56582;BME280;42463;52.214;21.238;2023-03-30T05:49:21;100107.48;;;7.05;48.19
56582;BME280;42463;52.214;21.238;2023-03-30T05:51:28;100105.80;;;7.08;48.12
56582;BME280;42463;52.214;21.238;2023-03-30T05:53:47;100107.89;;;7.07;48.10
56582;BME280;42463;52.214;21.238;2023-03-30T05:56:09;100102.66;;;7.07;47.99
56582;BME280;42463;52.214;21.238;2023-03-30T05:58:30;100103.23;;;7.09;48.08
56582;BME280;42463;52.214;21.238;2023-03-30T06:00:50;100101.95;;;7.07;48.06
56582;BME280;42463;52.214;21.238;2023-03-30T06:03:03;100101.01;;;7.05;48.23
56582;BME280;42463;52.214;21.238;2023-03-30T06:05:10;100098.95;;;7.04;48.32
56582;BME280;42463;52.214;21.238;2023-03-30T06:07:16;100099.02;;;7.05;48.44
56582;BME280;42463;52.214;21.238;2023-03-30T06:09:22;100093.84;;;7.06;48.29
56582;BME280;42463;52.214;21.238;2023-03-30T06:11:28;100093.39;;;7.10;48.34
56582;BME280;42463;52.214;21.238;2023-03-30T06:13:41;100091.23;;;7.12;48.46
56582;BME280;42463;52.214;21.238;2023-03-30T06:15:45;100093.48;;;7.21;48.54
56582;BME280;42463;52.214;21.238;2023-03-30T06:17:53;100090.65;;;7.26;48.42
56582;BME280;42463;52.214;21.238;2023-03-30T06:19:58;100093.41;;;7.32;48.38
56582;BME280;42463;52.214;21.238;2023-03-30T06:22:02;100095.63;;;7.35;48.33
56582;BME280;42463;52.214;21.238;2023-03-30T06:24:21;100095.39;;;7.36;48.27
56582;BME280;42463;52.214;21.238;2023-03-30T06:26:26;100091.07;;;7.39;48.23
56582;BME280;42463;52.214;21.238;2023-03-30T06:28:31;100090.09;;;7.39;48.37
56582;BME280;42463;52.214;21.238;2023-03-30T06:30:35;100093.86;;;7.38;48.29
56582;BME280;42463;52.214;21.238;2023-03-30T06:32:42;100091.85;;;7.41;48.54
56582;BME280;42463;52.214;21.238;2023-03-30T06:35:11;100087.51;;;7.42;48.73
56582;BME280;42463;52.214;21.238;2023-03-30T06:37:20;100087.18;;;7.45;48.50
56582;BME280;42463;52.214;21.238;2023-03-30T06:39:25;100087.05;;;7.47;48.66
56582;BME280;42463;52.214;21.238;2023-03-30T06:41:29;100085.45;;;7.50;48.46
56582;BME280;42463;52.214;21.238;2023-03-30T06:43:35;100085.62;;;7.54;48.44
56582;BME280;42463;52.214;21.238;2023-03-30T06:45:50;100082.83;;;7.58;48.35
56582;BME280;42463;52.214;21.238;2023-03-30T06:47:55;100085.69;;;7.58;48.23
56582;BME280;42463;52.214;21.238;2023-03-30T06:49:59;100088.33;;;7.57;48.52
56582;BME280;42463;52.214;21.238;2023-03-30T06:52:22;100087.45;;;7.57;48.51
56582;BME280;42463;52.214;21.238;2023-03-30T06:54:26;100086.66;;;7.57;48.51
56582;BME280;42463;52.214;21.238;2023-03-30T06:56:34;100087.95;;;7.57;48.74
56582;BME280;42463;52.214;21.238;2023-03-30T06:58:46;100089.44;;;7.59;48.84
56582;BME280;42463;52.214;21.238;2023-03-30T07:00:50;100082.04;;;7.65;48.69
56582;BME280;42463;52.214;21.238;2023-03-30T07:03:13;100084.25;;;7.71;48.69
56582;BME280;42463;52.214;21.238;2023-03-30T07:05:34;100080.00;;;7.79;48.69
56582;BME280;42463;52.214;21.238;2023-03-30T07:07:48;100074.07;;;7.86;48.54
56582;BME280;42463;52.214;21.238;2023-03-30T07:09:52;100077.77;;;7.93;48.67
56582;BME280;42463;52.214;21.238;2023-03-30T07:11:56;100071.23;;;7.96;48.65
56582;BME280;42463;52.214;21.238;2023-03-30T07:14:00;100073.46;;;7.98;48.52
56582;BME280;42463;52.214;21.238;2023-03-30T07:16:08;100073.84;;;8.00;48.66
56582;BME280;42463;52.214;21.238;2023-03-30T07:18:12;100070.60;;;8.05;48.49
56582;BME280;42463;52.214;21.238;2023-03-30T07:20:17;100072.74;;;8.10;48.60
56582;BME280;42463;52.214;21.238;2023-03-30T07:22:44;100075.25;;;8.12;48.58
56582;BME280;42463;52.214;21.238;2023-03-30T07:24:51;100071.23;;;8.14;48.54
56582;BME280;42463;52.214;21.238;2023-03-30T07:26:55;100072.95;;;8.17;48.64
56582;BME280;42463;52.214;21.238;2023-03-30T07:28:59;100071.75;;;8.20;48.56
56582;BME280;42463;52.214;21.238;2023-03-30T07:31:07;100070.92;;;8.22;48.40
56582;BME280;42463;52.214;21.238;2023-03-30T07:33:12;100067.88;;;8.25;48.52
56582;BME280;42463;52.214;21.238;2023-03-30T07:35:16;100064.98;;;8.26;48.62
56582;BME280;42463;52.214;21.238;2023-03-30T07:37:21;100065.59;;;8.27;48.59
56582;BME280;42463;52.214;21.238;2023-03-30T07:39:25;100068.27;;;8.28;48.72
56582;BME280;42463;52.214;21.238;2023-03-30T07:41:29;100065.55;;;8.31;48.89
56582;BME280;42463;52.214;21.238;2023-03-30T07:43:34;100071.15;;;8.34;49.03
56582;BME280;42463;52.214;21.238;2023-03-30T07:45:39;100071.59;;;8.31;48.78
56582;BME280;42463;52.214;21.238;2023-03-30T07:47:44;100072.61;;;8.33;48.90
56582;BME280;42463;52.214;21.238;2023-03-30T07:49:48;100072.02;;;8.38;48.89
56582;BME280;42463;52.214;21.238;2023-03-30T07:51:53;100072.97;;;8.39;49.03
56582;BME280;42463;52.214;21.238;2023-03-30T07:54:02;100072.14;;;8.42;49.21
56582;BME280;42463;52.214;21.238;2023-03-30T07:56:36;100068.63;;;8.46;49.00
56582;BME280;42463;52.214;21.238;2023-03-30T07:58:42;100062.94;;;8.45;48.79
56582;BME280;42463;52.214;21.238;2023-03-30T08:00:47;100058.94;;;8.45;48.82
56582;BME280;42463;52.214;21.238;2023-03-30T08:03:29;100059.02;;;8.51;49.04
56582;BME280;42463;52.214;21.238;2023-03-30T08:05:35;100054.48;;;8.59;49.12
56582;BME280;42463;52.214;21.238;2023-03-30T08:07:48;100053.41;;;8.68;48.86
56582;BME280;42463;52.214;21.238;2023-03-30T08:09:58;100058.11;;;8.76;48.86
56582;BME280;42463;52.214;21.238;2023-03-30T08:12:02;100056.02;;;8.81;48.78
56582;BME280;42463;52.214;21.238;2023-03-30T08:14:06;100053.13;;;8.89;48.78
56582;BME280;42463;52.214;21.238;2023-03-30T08:16:11;100052.83;;;8.95;48.36
56582;BME280;42463;52.214;21.238;2023-03-30T08:18:15;100054.88;;;9.00;48.33
56582;BME280;42463;52.214;21.238;2023-03-30T08:20:19;100050.91;;;9.03;48.13
56582;BME280;42463;52.214;21.238;2023-03-30T08:22:23;100051.36;;;9.04;48.25
56582;BME280;42463;52.214;21.238;2023-03-30T08:24:28;100045.48;;;9.06;48.37
56582;BME280;42463;52.214;21.238;2023-03-30T08:26:32;100039.40;;;9.09;48.42
56582;BME280;42463;52.214;21.238;2023-03-30T08:28:36;100043.25;;;9.14;48.51
56582;BME280;42463;52.214;21.238;2023-03-30T08:30:40;100045.75;;;9.20;48.57
56582;BME280;42463;52.214;21.238;2023-03-30T08:32:44;100042.00;;;9.24;48.53
56582;BME280;42463;52.214;21.238;2023-03-30T08:34:49;100040.52;;;9.28;48.52
56582;BME280;42463;52.214;21.238;2023-03-30T08:36:53;100039.88;;;9.33;48.54
56582;BME280;42463;52.214;21.238;2023-03-30T08:38:59;100039.89;;;9.37;48.26
56582;BME280;42463;52.214;21.238;2023-03-30T08:41:12;100030.08;;;9.41;48.47
56582;BME280;42463;52.214;21.238;2023-03-30T08:43:32;100032.30;;;9.46;48.32
56582;BME280;42463;52.214;21.238;2023-03-30T08:45:42;100028.96;;;9.48;48.57
56582;BME280;42463;52.214;21.238;2023-03-30T08:47:47;100028.39;;;9.51;48.37
56582;BME280;42463;52.214;21.238;2023-03-30T08:49:54;100026.28;;;9.51;48.24
56582;BME280;42463;52.214;21.238;2023-03-30T08:52:00;100023.21;;;9.48;48.34
56582;BME280;42463;52.214;21.238;2023-03-30T08:54:08;100022.64;;;9.50;48.42
56582;BME280;42463;52.214;21.238;2023-03-30T08:56:15;100026.09;;;9.55;48.49
56582;BME280;42463;52.214;21.238;2023-03-30T08:58:22;100023.20;;;9.59;48.56
56582;BME280;42463;52.214;21.238;2023-03-30T09:00:33;100016.94;;;9.55;48.31
56582;BME280;42463;52.214;21.238;2023-03-30T09:02:40;100014.67;;;9.62;48.30
56582;BME280;42463;52.214;21.238;2023-03-30T09:04:51;100011.33;;;9.64;48.28
56582;BME280;42463;52.214;21.238;2023-03-30T09:07:00;100006.66;;;9.68;48.39
56582;BME280;42463;52.214;21.238;2023-03-30T09:09:07;100003.04;;;9.70;48.43
56582;BME280;42463;52.214;21.238;2023-03-30T09:11:16;99999.86;;;9.71;48.51
56582;BME280;42463;52.214;21.238;2023-03-30T09:13:24;99995.92;;;9.74;48.38
56582;BME280;42463;52.214;21.238;2023-03-30T09:15:29;99993.89;;;9.76;48.42
56582;BME280;42463;52.214;21.238;2023-03-30T09:17:35;99994.87;;;9.78;48.28
56582;BME280;42463;52.214;21.238;2023-03-30T09:19:44;99991.20;;;9.80;48.39
56582;BME280;42463;52.214;21.238;2023-03-30T09:21:50;99982.69;;;9.80;48.52
56582;BME280;42463;52.214;21.238;2023-03-30T09:23:58;99988.52;;;9.85;48.55
56582;BME280;42463;52.214;21.238;2023-03-30T09:26:06;99982.33;;;9.83;48.60
56582;BME280;42463;52.214;21.238;2023-03-30T09:28:14;99983.02;;;9.82;48.70
56582;BME280;42463;52.214;21.238;2023-03-30T09:30:21;99979.95;;;9.84;48.75
56582;BME280;42463;52.214;21.238;2023-03-30T09:32:27;99972.31;;;9.83;48.70
56582;BME280;42463;52.214;21.238;2023-03-30T09:34:35;99974.66;;;9.86;49.08
56582;BME280;42463;52.214;21.238;2023-03-30T09:36:42;99972.29;;;9.87;49.01
56582;BME280;42463;52.214;21.238;2023-03-30T09:38:48;99967.96;;;9.89;48.99
56582;BME280;42463;52.214;21.238;2023-03-30T09:40:59;99965.34;;;9.87;48.88
56582;BME280;42463;52.214;21.238;2023-03-30T09:43:09;99959.51;;;9.87;49.11
56582;BME280;42463;52.214;21.238;2023-03-30T09:45:19;99957.02;;;9.90;49.04
56582;BME280;42463;52.214;21.238;2023-03-30T09:47:24;99951.07;;;9.90;48.91
56582;BME280;42463;52.214;21.238;2023-03-30T09:49:28;99948.23;;;9.89;48.99
56582;BME280;42463;52.214;21.238;2023-03-30T09:51:51;99954.22;;;9.92;49.08
56582;BME280;42463;52.214;21.238;2023-03-30T09:53:58;99944.45;;;9.98;49.38
56582;BME280;42463;52.214;21.238;2023-03-30T09:56:08;99938.95;;;10.03;49.06
56582;BME280;42463;52.214;21.238;2023-03-30T09:58:15;99933.92;;;10.06;49.11
56582;BME280;42463;52.214;21.238;2023-03-30T10:00:24;99935.84;;;10.10;49.10
56582;BME280;42463;52.214;21.238;2023-03-30T10:02:29;99937.05;;;10.13;49.17
56582;BME280;42463;52.214;21.238;2023-03-30T10:04:36;99938.74;;;10.15;48.96
56582;BME280;42463;52.214;21.238;2023-03-30T10:06:58;99936.54;;;10.17;48.84
56582;BME280;42463;52.214;21.238;2023-03-30T10:09:02;99934.52;;;10.17;48.90
56582;BME280;42463;52.214;21.238;2023-03-30T10:11:08;99929.48;;;10.17;48.95
56582;BME280;42463;52.214;21.238;2023-03-30T10:13:13;99925.70;;;10.18;48.89
56582;BME280;42463;52.214;21.238;2023-03-30T10:15:19;99923.73;;;10.21;49.02
56582;BME280;42463;52.214;21.238;2023-03-30T10:17:25;99925.62;;;10.29;49.02
56582;BME280;42463;52.214;21.238;2023-03-30T10:19:30;99924.17;;;10.36;49.03
56582;BME280;42463;52.214;21.238;2023-03-30T10:21:37;99923.89;;;10.40;48.78
56582;BME280;42463;52.214;21.238;2023-03-30T10:23:43;99922.67;;;10.45;48.93
56582;BME280;42463;52.214;21.238;2023-03-30T10:25:47;99916.90;;;10.54;48.88
56582;BME280;42463;52.214;21.238;2023-03-30T10:27:54;99912.86;;;10.65;48.80
56582;BME280;42463;52.214;21.238;2023-03-30T10:29:58;99916.32;;;10.78;48.76
56582;BME280;42463;52.214;21.238;2023-03-30T10:32:13;99913.73;;;10.85;48.40
56582;BME280;42463;52.214;21.238;2023-03-30T10:34:19;99907.23;;;10.94;48.25
56582;BME280;42463;52.214;21.238;2023-03-30T10:37:29;99898.63;;;11.16;48.60
56582;BME280;42463;52.214;21.238;2023-03-30T10:39:37;99894.55;;;11.24;47.87
56582;BME280;42463;52.214;21.238;2023-03-30T10:41:46;99887.55;;;11.35;47.79
56582;BME280;42463;52.214;21.238;2023-03-30T10:43:53;99890.11;;;11.51;47.71
56582;BME280;42463;52.214;21.238;2023-03-30T10:46:07;99881.19;;;11.66;47.39
56582;BME280;42463;52.214;21.238;2023-03-30T10:48:33;99877.73;;;11.87;47.20
56582;BME280;42463;52.214;21.238;2023-03-30T10:50:45;99868.92;;;12.07;46.60
56582;BME280;42463;52.214;21.238;2023-03-30T10:53:01;99855.12;;;12.20;46.13
56582;BME280;42463;52.214;21.238;2023-03-30T10:55:14;99860.20;;;12.40;45.96
56582;BME280;42463;52.214;21.238;2023-03-30T10:57:28;99858.66;;;12.57;46.00
56582;BME280;42463;52.214;21.238;2023-03-30T10:59:53;99859.77;;;12.71;45.27
56582;BME280;42463;52.214;21.238;2023-03-30T11:02:17;99852.17;;;12.84;45.18
56582;BME280;42463;52.214;21.238;2023-03-30T11:04:30;99849.32;;;12.94;44.83
56582;BME280;42463;52.214;21.238;2023-03-30T11:06:40;99849.87;;;12.94;44.55
56582;BME280;42463;52.214;21.238;2023-03-30T11:08:49;99843.52;;;12.97;44.69
56582;BME280;42463;52.214;21.238;2023-03-30T11:10:58;99836.65;;;13.05;44.85
56582;BME280;42463;52.214;21.238;2023-03-30T11:13:07;99835.92;;;13.17;44.92
56582;BME280;42463;52.214;21.238;2023-03-30T11:15:18;99833.85;;;13.31;44.32
56582;BME280;42463;52.214;21.238;2023-03-30T11:17:29;99842.12;;;13.37;44.13
56582;BME280;42463;52.214;21.238;2023-03-30T11:19:41;99840.67;;;13.46;44.30
56582;BME280;42463;52.214;21.238;2023-03-30T11:21:54;99844.39;;;13.55;44.24
56582;BME280;42463;52.214;21.238;2023-03-30T11:24:05;99837.73;;;13.55;44.15
56582;BME280;42463;52.214;21.238;2023-03-30T11:26:16;99837.02;;;13.56;44.47
56582;BME280;42463;52.214;21.238;2023-03-30T11:28:39;99835.84;;;13.53;44.21
56582;BME280;42463;52.214;21.238;2023-03-30T11:30:52;99834.19;;;13.47;44.44
56582;BME280;42463;52.214;21.238;2023-03-30T11:33:07;99829.11;;;13.36;44.41
56582;BME280;42463;52.214;21.238;2023-03-30T11:35:21;99825.33;;;13.27;44.72
56582;BME280;42463;52.214;21.238;2023-03-30T11:37:35;99822.63;;;13.24;45.10
56582;BME280;42463;52.214;21.238;2023-03-30T11:39:46;99816.02;;;13.27;45.07